SPTN/TCQ METAR and TAF weather

Enter ICAO airport designator
Station Type Date Time Source
SPTN METAR 2020/06/05 13:00 UTC NOAA

SPTN 051300Z VRB02KT 9999 FEW040 14/13 Q1016 RMK TX21.1 TN12.2 PP000


Station Type Date Time Source
SPTN Decoded METAR 2020/06/05 13:00 UTC NOAA

Tacna, Peru (SPTN) 18-04S 070-18W 469M
Jun 05, 2020 - 09:00 AM EDT / 2020.06.05 1300 UTC
Wind: Variable at 2 MPH (2 KT):0
Visibility: greater than 7 mile(s):0
Sky conditions: mostly clear
Temperature: 57 F (14 C)
Dew Point: 55 F (13 C)
Relative Humidity: 93%
Pressure (altimeter): 30.00 in. Hg (1016 hPa)
ob: SPTN 051300Z VRB02KT 9999 FEW040 14/13 Q1016 RMK TX21.1 TN12.2 PP000
cycle: 13

Station Type Date Time Source
SPTN TAF 2020/06/04 12:58 UTC NOAA

TAF SPTN 041400Z 0412/0512 23005KT 9999 SCT020 BKN030 TX19/0419Z TN14/0510Z
FM041630 25008KT 9999 SCT025 BKN040
FM042030 22006KT 9999 SCT018 BKN030
FM042300 VRB05KT 9999 SCT012 OVC025

Example: see airport list